createdAt,value
2019-01-27T00:00:33.527Z,36.00
2019-01-27T00:05:37.639Z,35.73
2019-01-27T00:10:41.323Z,36.17
2019-01-27T00:15:44.999Z,39.73
2019-01-27T00:20:48.666Z,41.43
2019-01-27T00:25:52.324Z,40.17
2019-01-27T00:30:56.006Z,41.47
2019-01-27T00:35:59.768Z,32.00
2019-01-27T00:41:03.522Z,35.10
2019-01-27T00:46:07.335Z,32.93
2019-01-27T00:51:11.072Z,32.50
2019-01-27T00:56:14.735Z,31.50
2019-01-27T01:01:18.480Z,29.37
2019-01-27T01:06:22.330Z,29.63
2019-01-27T01:11:26.004Z,28.43
2019-01-27T01:16:29.744Z,29.60
2019-01-27T01:21:33.510Z,28.10
2019-01-27T01:26:37.265Z,23.93
2019-01-27T01:31:40.927Z,25.90
2019-01-27T01:36:44.699Z,24.63
2019-01-27T01:41:48.439Z,23.80
2019-01-27T01:46:52.188Z,24.77
2019-01-27T01:51:55.866Z,24.50
2019-01-27T01:56:59.546Z,22.93
2019-01-27T02:02:03.280Z,21.67
2019-01-27T02:07:07.110Z,22.53
2019-01-27T02:12:10.796Z,21.97
2019-01-27T02:17:14.470Z,24.93
2019-01-27T02:22:18.231Z,22.97
2019-01-27T02:27:21.961Z,22.47
2019-01-27T02:32:25.987Z,22.23
2019-01-27T02:37:29.648Z,23.77
2019-01-27T02:42:33.405Z,22.70
2019-01-27T02:47:37.089Z,19.80
2019-01-27T02:52:41.090Z,21.50
2019-01-27T02:57:44.836Z,19.50
2019-01-27T03:02:48.504Z,21.40
2019-01-27T03:07:52.273Z,19.97
2019-01-27T03:12:55.943Z,19.77
2019-01-27T03:17:59.806Z,18.77
2019-01-27T03:23:03.486Z,20.47
2019-01-27T03:28:07.257Z,20.77
2019-01-27T03:33:10.941Z,17.50
2019-01-27T03:38:14.677Z,18.13
2019-01-27T03:43:18.423Z,17.27
2019-01-27T03:48:22.098Z,17.87
2019-01-27T03:53:25.841Z,17.60
2019-01-27T03:58:29.504Z,19.53
2019-01-27T04:03:33.242Z,18.00
2019-01-27T04:08:37.109Z,18.97
2019-01-27T04:13:40.835Z,18.43
2019-01-27T04:18:44.489Z,19.87
2019-01-27T04:23:48.179Z,20.17
2019-01-27T04:28:51.861Z,20.37
2019-01-27T04:33:55.604Z,21.57
2019-01-27T04:38:59.269Z,21.63
2019-01-27T04:44:02.969Z,19.70
2019-01-27T04:49:06.772Z,19.97
2019-01-27T04:54:10.433Z,20.00
2019-01-27T04:59:14.115Z,17.50
2019-01-27T05:04:30.245Z,19.93
2019-01-27T05:09:33.916Z,18.47
2019-01-27T05:14:37.585Z,16.33
2019-01-27T05:19:41.252Z,17.37
2019-01-27T05:24:44.917Z,16.20
2019-01-27T05:29:48.585Z,17.37
2019-01-27T05:34:52.265Z,17.93
2019-01-27T05:39:55.941Z,16.30
2019-01-27T05:44:59.609Z,16.03
2019-01-27T05:50:03.911Z,16.60
2019-01-27T05:55:08.329Z,14.17
2019-01-27T06:00:15.901Z,14.60
2019-01-27T06:05:19.586Z,14.77
2019-01-27T06:10:23.329Z,14.60
2019-01-27T06:15:27.160Z,13.40
2019-01-27T06:20:30.826Z,14.20
2019-01-27T06:25:34.496Z,14.30
2019-01-27T06:30:38.155Z,12.73
2019-01-27T06:35:42.206Z,13.37
2019-01-27T06:40:45.861Z,13.40
2019-01-27T06:45:49.538Z,13.30
2019-01-27T06:50:53.280Z,13.63
2019-01-27T06:55:56.953Z,14.13
2019-01-27T07:01:06.862Z,13.20
2019-01-27T07:06:17.425Z,16.13
2019-01-27T07:11:27.179Z,14.90
2019-01-27T07:16:43.709Z,16.50
2019-01-27T07:22:12.389Z,11.47
2019-01-27T07:27:41.436Z,12.73
2019-01-27T07:33:02.969Z,11.87
2019-01-27T07:38:15.497Z,12.60
2019-01-27T07:43:37.302Z,12.13
2019-01-27T07:48:48.536Z,12.70
2019-01-27T07:54:10.095Z,12.23
2019-01-27T07:59:38.020Z,10.27
2019-01-27T08:04:48.548Z,10.60
2019-01-27T08:10:14.186Z,11.10
2019-01-27T08:15:35.852Z,11.50
2019-01-27T08:20:56.688Z,10.80
2019-01-27T08:26:18.261Z,10.47
2019-01-27T08:31:45.672Z,10.03
2019-01-27T08:37:02.505Z,10.33
2019-01-27T08:42:23.334Z,9.80
2019-01-27T08:47:26.993Z,10.57
2019-01-27T08:52:30.970Z,10.40
2019-01-27T08:57:34.656Z,9.33
2019-01-27T09:02:56.298Z,8.70
2019-01-27T09:08:09.268Z,10.57
2019-01-27T09:13:39.464Z,9.20
2019-01-27T09:19:09.362Z,9.43
2019-01-27T09:24:32.213Z,10.27
2019-01-27T09:29:42.441Z,10.93
2019-01-27T09:34:55.577Z,9.33
2019-01-27T09:40:27.520Z,11.23
2019-01-27T09:45:57.893Z,8.80
2019-01-27T09:50:57.440Z,8.90
2019-01-27T09:56:23.511Z,7.63
2019-01-27T10:01:32.060Z,8.07
2019-01-27T10:06:45.417Z,9.00
2019-01-27T10:11:55.077Z,8.23
2019-01-27T10:17:07.400Z,7.63
2019-01-27T10:22:36.244Z,7.23
2019-01-27T10:27:58.108Z,7.83
2019-01-27T10:33:09.576Z,7.23
2019-01-27T10:38:41.756Z,6.63
2019-01-27T10:43:53.866Z,7.37
2019-01-27T10:49:22.645Z,9.33
2019-01-27T10:54:41.597Z,6.47
2019-01-27T10:59:52.347Z,6.50
2019-01-27T11:05:14.053Z,6.27
2019-01-27T11:10:28.352Z,5.67
2019-01-27T11:15:50.132Z,5.63
2019-01-27T11:21:12.973Z,4.97
2019-01-27T11:26:44.730Z,4.90
2019-01-27T11:32:16.909Z,5.60
2019-01-27T11:37:37.262Z,6.53
2019-01-27T11:43:06.145Z,4.80
2019-01-27T11:48:13.837Z,5.80
2019-01-27T11:53:17.501Z,5.60
2019-01-27T11:58:21.160Z,5.30
2019-01-27T12:03:24.821Z,5.07
2019-01-27T12:08:28.494Z,4.37
2019-01-27T12:13:32.319Z,4.00
2019-01-27T12:18:35.972Z,4.63
2019-01-27T12:23:39.624Z,3.70
2019-01-27T12:28:43.375Z,6.50
2019-01-27T12:33:47.030Z,3.77
2019-01-27T12:38:50.694Z,4.00
2019-01-27T12:43:54.351Z,4.70
2019-01-27T12:48:58.004Z,3.13
2019-01-27T12:54:01.739Z,2.80
2019-01-27T12:59:05.669Z,3.43
2019-01-27T13:04:09.485Z,2.90
2019-01-27T13:09:13.167Z,2.80
2019-01-27T13:14:16.809Z,2.50
2019-01-27T13:19:20.466Z,3.10
2019-01-27T13:24:24.201Z,3.13
2019-01-27T13:29:28.029Z,3.90
2019-01-27T13:34:31.685Z,3.80
2019-01-27T13:39:35.793Z,3.90
2019-01-27T13:44:39.441Z,3.80
2019-01-27T13:49:43.100Z,4.03
2019-01-27T13:54:46.767Z,3.57
2019-01-27T13:59:51.532Z,3.93
2019-01-27T14:04:55.378Z,4.30
2019-01-27T14:09:59.038Z,4.03
2019-01-27T14:15:02.714Z,4.63
2019-01-27T14:20:08.808Z,5.00
2019-01-27T14:25:14.117Z,4.63
2019-01-27T14:30:20.160Z,5.60
2019-01-27T14:35:23.889Z,5.03
2019-01-27T14:40:28.501Z,4.90
2019-01-27T14:45:32.728Z,5.30
2019-01-27T14:50:38.964Z,4.83
2019-01-27T14:55:42.773Z,5.53
2019-01-27T15:00:46.592Z,4.80
2019-01-27T15:05:50.289Z,4.83
2019-01-27T15:10:54.018Z,5.53
2019-01-27T15:15:57.673Z,5.27
2019-01-27T15:21:08.158Z,5.30
2019-01-27T15:26:11.832Z,7.07
2019-01-27T15:31:15.497Z,5.63
2019-01-27T15:36:19.148Z,7.90
2019-01-27T15:41:22.840Z,6.97
2019-01-27T15:46:27.271Z,5.97
2019-01-27T15:51:30.933Z,5.40
2019-01-27T15:56:35.002Z,6.73
2019-01-27T16:01:39.050Z,6.17
2019-01-27T16:06:42.717Z,6.40
2019-01-27T16:11:46.368Z,7.53
2019-01-27T16:16:50.111Z,7.63
2019-01-27T16:21:53.858Z,7.43
2019-01-27T16:26:57.589Z,5.77
2019-01-27T16:32:09.436Z,5.77
2019-01-27T16:37:13.182Z,5.87
2019-01-27T16:42:16.962Z,4.80
2019-01-27T16:47:20.646Z,4.50
2019-01-27T16:52:24.333Z,7.37
2019-01-27T16:57:28.004Z,5.00
2019-01-27T17:02:31.677Z,4.27
2019-01-27T17:07:35.353Z,5.13
2019-01-27T17:12:39.449Z,5.33
2019-01-27T17:17:44.089Z,6.67
2019-01-27T17:22:47.836Z,4.90
2019-01-27T17:27:53.676Z,5.07
2019-01-27T17:32:57.177Z,5.20
2019-01-27T17:38:01.075Z,4.67
2019-01-27T17:43:04.976Z,5.00
2019-01-27T17:48:08.982Z,4.70
2019-01-27T17:53:12.720Z,4.90
2019-01-27T17:58:41.473Z,4.87
2019-01-27T18:04:03.348Z,5.10
2019-01-27T18:09:16.553Z,5.80
2019-01-27T18:14:24.467Z,5.60
2019-01-27T18:19:28.155Z,5.40
2019-01-27T18:24:31.803Z,6.57
2019-01-27T18:29:35.889Z,6.03
2019-01-27T18:34:39.657Z,6.20
2019-01-27T18:39:43.327Z,5.73
2019-01-27T18:44:46.978Z,5.87
2019-01-27T18:49:50.636Z,6.07
2019-01-27T18:55:01.988Z,5.97
2019-01-27T19:00:22.250Z,6.60
2019-01-27T19:05:45.940Z,5.77
2019-01-27T19:10:55.905Z,6.47
2019-01-27T19:16:24.940Z,7.83
2019-01-27T19:22:04.606Z,6.27
2019-01-27T19:27:34.195Z,6.20
2019-01-27T19:32:46.126Z,6.33
2019-01-27T19:37:56.813Z,6.10
2019-01-27T19:43:09.833Z,6.73
2019-01-27T19:48:32.680Z,6.27
2019-01-27T19:53:46.479Z,6.57
2019-01-27T19:59:09.712Z,6.07
2019-01-27T20:04:26.972Z,6.67
2019-01-27T20:09:53.018Z,6.60
2019-01-27T20:15:13.502Z,7.40
2019-01-27T20:20:54.504Z,5.93
2019-01-27T20:26:14.557Z,5.20
2019-01-27T20:31:32.688Z,5.10
2019-01-27T20:36:46.297Z,5.33
2019-01-27T20:42:18.369Z,4.63
2019-01-27T20:47:36.668Z,4.07
2019-01-27T20:52:58.900Z,4.63
2019-01-27T20:58:12.634Z,4.70
2019-01-27T21:03:35.478Z,4.50
2019-01-27T21:08:55.508Z,4.30
2019-01-27T21:14:09.181Z,4.57
2019-01-27T21:19:24.343Z,4.93
2019-01-27T21:24:28.093Z,4.90
2019-01-27T21:29:31.828Z,4.73
2019-01-27T21:34:35.578Z,4.63
2019-01-27T21:39:39.339Z,4.60
2019-01-27T21:44:43.001Z,4.87
2019-01-27T21:49:47.717Z,4.73
2019-01-27T21:54:51.369Z,4.30
2019-01-27T21:59:55.031Z,4.27
2019-01-27T22:04:58.697Z,3.90
2019-01-27T22:10:02.433Z,4.20
2019-01-27T22:15:06.660Z,6.00
2019-01-27T22:20:12.849Z,4.40
2019-01-27T22:25:16.825Z,4.90
2019-01-27T22:30:21.301Z,4.50
2019-01-27T22:35:24.964Z,3.97
2019-01-27T22:40:28.608Z,4.53
2019-01-27T22:45:32.275Z,4.40
2019-01-27T22:50:35.995Z,5.00
2019-01-27T22:55:39.673Z,7.27
2019-01-27T23:01:00.676Z,4.90
2019-01-27T23:06:04.691Z,4.47
2019-01-27T23:11:08.352Z,4.90
2019-01-27T23:16:12.077Z,5.00
2019-01-27T23:21:15.732Z,4.63
2019-01-27T23:26:19.384Z,4.40
2019-01-27T23:31:23.040Z,4.80
2019-01-27T23:36:26.720Z,4.90
2019-01-27T23:41:30.369Z,7.77
2019-01-27T23:46:34.593Z,5.80
2019-01-27T23:51:38.253Z,6.30
2019-01-27T23:56:41.909Z,5.13
